createdAt,value
2023-03-10T00:00:34.660Z,3.40
2023-03-10T00:03:01.602Z,3.30
2023-03-10T00:05:28.563Z,3.30
2023-03-10T00:07:55.506Z,3.30
2023-03-10T00:10:22.477Z,3.30
2023-03-10T00:12:49.484Z,3.30
2023-03-10T00:15:16.490Z,3.30
2023-03-10T00:17:43.375Z,3.30
2023-03-10T00:20:12.612Z,3.40
2023-03-10T00:22:41.754Z,3.40
2023-03-10T00:25:10.448Z,3.40
2023-03-10T00:27:37.561Z,3.40
2023-03-10T00:30:05.190Z,3.30
2023-03-10T06:09:08.097Z,4.20
2023-03-10T06:11:35.115Z,4.20
2023-03-10T06:14:02.024Z,4.40
2023-03-10T06:16:29.159Z,4.40
2023-03-10T06:18:57.048Z,4.40
2023-03-10T06:21:25.123Z,4.50
2023-03-10T06:23:52.525Z,4.50
2023-03-10T06:26:19.422Z,4.70
2023-03-10T06:28:46.799Z,4.70
2023-03-10T06:31:22.206Z,4.80
2023-03-10T06:33:49.216Z,4.90
2023-03-10T06:36:20.270Z,5.10
2023-03-10T06:38:48.724Z,5.10
2023-03-10T06:41:20.342Z,5.20
2023-03-10T06:43:47.613Z,5.30
2023-03-10T06:46:15.091Z,5.40
2023-03-10T06:48:43.114Z,5.50
2023-03-10T06:51:16.981Z,5.50
2023-03-10T06:53:44.182Z,5.40
2023-03-10T06:56:22.411Z,5.30
2023-03-10T06:58:49.579Z,5.30
2023-03-10T07:01:30.189Z,5.30
2023-03-10T07:03:58.378Z,5.30
2023-03-10T07:06:25.596Z,5.50
2023-03-10T07:08:54.238Z,5.50
2023-03-10T07:11:21.642Z,5.60
2023-03-10T07:13:48.689Z,5.60
2023-03-10T07:16:16.203Z,5.60
2023-03-10T07:18:45.273Z,5.80
2023-03-10T07:21:16.086Z,5.80
2023-03-10T07:23:43.259Z,5.90
2023-03-10T07:26:10.862Z,6.00
2023-03-10T07:28:38.275Z,6.10
2023-03-10T07:31:10.764Z,6.30
2023-03-10T07:33:39.006Z,6.30
2023-03-10T07:36:08.106Z,6.40
2023-03-10T07:38:36.480Z,6.40
2023-03-10T07:41:14.532Z,6.50
2023-03-10T07:43:41.607Z,6.60
2023-03-10T07:46:13.624Z,6.50
2023-03-10T07:48:40.992Z,6.70
2023-03-10T07:51:13.627Z,6.70
2023-03-10T07:53:40.899Z,6.70
2023-03-10T07:56:14.161Z,6.80
2023-03-10T07:58:41.888Z,6.70
2023-03-10T08:01:16.504Z,6.70
2023-03-10T08:03:44.062Z,6.60
2023-03-10T08:06:17.860Z,6.60
2023-03-10T08:08:44.917Z,6.60
2023-03-10T08:11:12.110Z,6.70
2023-03-10T08:13:40.237Z,6.70
2023-03-10T08:16:09.596Z,6.70
2023-03-10T08:18:37.893Z,6.80
2023-03-10T08:21:07.088Z,6.80
2023-03-10T08:23:35.532Z,6.70
2023-03-10T08:26:09.456Z,6.60
2023-03-10T08:28:39.361Z,6.60
2023-03-10T08:31:09.610Z,6.50
2023-03-10T08:33:36.908Z,6.40
2023-03-10T08:36:10.935Z,6.30
2023-03-10T08:38:38.587Z,6.30
2023-03-10T08:41:37.252Z,6.20
2023-03-10T08:44:05.956Z,6.40
2023-03-10T08:46:35.778Z,6.40
2023-03-10T08:49:03.324Z,6.70
2023-03-10T08:51:30.663Z,6.70
2023-03-10T08:53:58.625Z,6.80
2023-03-10T08:56:26.436Z,6.90
2023-03-10T08:58:56.864Z,7.00
2023-03-10T09:01:23.971Z,6.90
2023-03-10T09:03:51.129Z,6.80
2023-03-10T09:06:18.477Z,6.90
2023-03-10T09:08:45.950Z,7.00
2023-03-10T09:11:21.837Z,7.00
2023-03-10T09:13:49.199Z,7.00
2023-03-10T09:16:16.992Z,7.00
2023-03-10T09:18:44.974Z,6.90
2023-03-10T09:21:14.884Z,6.80
2023-03-10T09:23:45.031Z,6.90
2023-03-10T09:26:13.007Z,6.90
2023-03-10T09:28:40.341Z,6.90
2023-03-10T09:31:09.735Z,6.80
2023-03-10T09:33:37.089Z,6.80
2023-03-10T09:36:06.954Z,6.80
2023-03-10T09:38:35.788Z,6.70
2023-03-10T09:41:49.781Z,6.60
2023-03-10T09:44:37.034Z,6.60
2023-03-10T09:47:07.236Z,6.60
2023-03-10T09:49:47.358Z,6.60
2023-03-10T09:52:45.886Z,6.70
2023-03-10T09:55:47.974Z,6.70
2023-03-10T09:58:29.715Z,6.70
2023-03-10T10:00:58.261Z,6.60
2023-03-10T10:03:51.504Z,6.70
2023-03-10T10:06:34.046Z,6.70
2023-03-10T10:09:21.574Z,6.90
2023-03-10T10:11:48.586Z,6.90
2023-03-10T10:14:30.585Z,6.90
2023-03-10T10:17:07.312Z,7.10
2023-03-10T10:19:37.178Z,6.90
2023-03-10T10:22:19.472Z,6.90
2023-03-10T10:25:09.664Z,6.70
2023-03-10T10:27:38.242Z,6.60
2023-03-10T10:30:26.813Z,6.50
2023-03-10T10:33:00.418Z,6.60
2023-03-10T10:35:33.448Z,6.60
2023-03-10T10:38:15.105Z,6.70
2023-03-10T10:41:15.664Z,6.80
2023-03-10T10:43:45.046Z,6.70
2023-03-10T10:46:15.356Z,6.70
2023-03-10T10:48:47.646Z,6.70
2023-03-10T10:51:30.044Z,6.80
2023-03-10T10:53:59.383Z,6.90
2023-03-10T10:56:28.658Z,7.10
2023-03-10T10:59:13.842Z,7.00
2023-03-10T11:01:48.765Z,7.00
2023-03-10T11:04:17.565Z,6.90
2023-03-10T11:06:45.397Z,6.80
2023-03-10T11:09:14.028Z,6.80
2023-03-10T11:11:56.136Z,7.00
2023-03-10T11:14:32.441Z,6.90
2023-03-10T11:17:14.336Z,6.80
2023-03-10T11:20:12.232Z,6.80
2023-03-10T11:22:50.195Z,6.90
2023-03-10T11:25:35.535Z,7.10
2023-03-10T11:28:19.005Z,7.10
2023-03-10T11:30:57.254Z,7.20
2023-03-10T11:33:42.658Z,7.20
2023-03-10T11:36:35.061Z,7.30
2023-03-10T11:39:33.606Z,7.20
2023-03-10T11:42:31.290Z,7.00
2023-03-10T11:45:20.439Z,6.90
2023-03-10T11:48:16.555Z,7.00
2023-03-10T11:50:59.308Z,7.10
2023-03-10T11:53:41.038Z,7.10
2023-03-10T11:56:12.784Z,7.00
2023-03-10T11:58:48.549Z,6.90
2023-03-10T12:01:21.501Z,7.00
2023-03-10T12:04:08.534Z,7.00
2023-03-10T12:06:44.925Z,7.30
2023-03-10T12:09:31.404Z,7.40
2023-03-10T12:11:58.739Z,7.50
2023-03-10T12:14:26.106Z,7.50
2023-03-10T12:16:54.043Z,7.60
2023-03-10T12:19:20.994Z,7.40
2023-03-10T12:22:28.120Z,7.30
2023-03-10T12:24:55.125Z,7.20
2023-03-10T12:27:22.243Z,7.20
2023-03-10T12:29:49.555Z,7.00
2023-03-10T12:32:40.460Z,7.20
2023-03-10T12:35:48.120Z,7.20
2023-03-10T12:38:38.795Z,7.20
2023-03-10T12:41:06.759Z,7.10
2023-03-10T12:43:48.766Z,7.10
2023-03-10T12:46:21.390Z,7.00
2023-03-10T12:48:53.957Z,6.80
2023-03-10T12:51:25.529Z,6.80
2023-03-10T12:54:06.501Z,6.70
2023-03-10T12:56:43.204Z,6.60
2023-03-10T12:59:16.667Z,6.40
2023-03-10T13:01:55.871Z,6.30
2023-03-10T13:04:27.136Z,6.20
2023-03-10T13:07:03.535Z,6.20
2023-03-10T13:09:39.144Z,6.30
2023-03-10T13:12:21.416Z,6.40
2023-03-10T13:14:54.286Z,6.40
2023-03-10T13:17:29.829Z,6.50
2023-03-10T13:20:08.425Z,6.50
2023-03-10T13:22:35.931Z,6.50
2023-03-10T13:25:06.049Z,6.50
2023-03-10T13:27:35.957Z,6.50
2023-03-10T13:30:16.740Z,6.50
2023-03-10T13:32:55.106Z,6.50
2023-03-10T13:35:32.479Z,6.50
2023-03-10T13:38:31.801Z,6.60
2023-03-10T13:41:01.028Z,6.70
2023-03-10T13:43:30.830Z,6.70
2023-03-10T13:45:59.502Z,6.70
2023-03-10T13:48:27.582Z,6.60
2023-03-10T13:51:17.213Z,6.50
2023-03-10T13:53:46.383Z,6.40
2023-03-10T13:56:38.754Z,6.40
2023-03-10T13:59:06.978Z,6.30
2023-03-10T14:01:37.572Z,6.30
2023-03-10T14:04:08.804Z,6.20
2023-03-10T14:06:37.314Z,6.20
2023-03-10T14:09:21.738Z,6.10
2023-03-10T14:11:50.385Z,6.00
2023-03-10T14:14:35.650Z,5.80
2023-03-10T14:17:05.371Z,5.80
2023-03-10T14:19:41.131Z,5.80
2023-03-10T14:22:24.719Z,5.80
2023-03-10T14:24:52.105Z,5.80
2023-03-10T14:27:19.649Z,5.80
2023-03-10T14:29:52.287Z,5.80
2023-03-10T14:32:19.572Z,5.80
2023-03-10T14:34:48.263Z,5.80
2023-03-10T14:37:15.338Z,5.80
2023-03-10T14:39:42.318Z,5.70
2023-03-10T14:42:20.029Z,5.70
2023-03-10T14:44:48.054Z,5.60
2023-03-10T14:47:16.038Z,5.60
2023-03-10T14:49:43.336Z,5.60
2023-03-10T14:52:14.808Z,5.60
2023-03-10T14:54:42.255Z,5.50
2023-03-10T14:57:10.352Z,5.60
2023-03-10T14:59:37.345Z,5.60
2023-03-10T15:02:20.014Z,5.50
2023-03-10T15:04:47.128Z,5.50
2023-03-10T15:07:15.386Z,5.50
2023-03-10T15:09:42.281Z,5.40
2023-03-10T15:12:09.790Z,5.40
2023-03-10T15:14:36.868Z,5.40
2023-03-10T15:17:04.593Z,5.40
2023-03-10T15:19:31.738Z,5.40
2023-03-10T15:21:58.710Z,5.40
2023-03-10T15:24:25.623Z,5.30
2023-03-10T15:26:52.543Z,5.30
2023-03-10T15:29:20.375Z,5.30
2023-03-10T15:31:47.681Z,5.30
2023-03-10T15:34:15.056Z,5.30
2023-03-10T15:36:43.008Z,5.20
2023-03-10T15:39:14.249Z,5.20
2023-03-10T15:41:45.829Z,5.20
2023-03-10T15:44:12.874Z,5.30
2023-03-10T15:46:40.092Z,5.30
2023-03-10T15:49:07.198Z,5.40
2023-03-10T15:51:34.086Z,5.30
2023-03-10T15:54:00.953Z,5.30
2023-03-10T15:56:27.873Z,5.20
2023-03-10T15:58:55.012Z,5.30
2023-03-10T16:01:22.087Z,5.30
2023-03-10T16:03:48.991Z,5.30
2023-03-10T16:06:15.941Z,5.20
2023-03-10T16:08:43.300Z,5.30
2023-03-10T16:11:19.235Z,5.20
2023-03-10T16:13:49.310Z,5.20
2023-03-10T16:16:27.093Z,5.10
2023-03-10T16:19:00.423Z,5.10
2023-03-10T16:21:28.106Z,5.00
2023-03-10T16:23:55.120Z,4.90
2023-03-10T16:26:23.815Z,4.90
2023-03-10T16:28:53.062Z,4.90
2023-03-10T16:31:22.267Z,4.90
2023-03-10T16:33:53.701Z,4.90
2023-03-10T16:36:22.725Z,4.80
2023-03-10T16:38:50.303Z,4.90
2023-03-10T16:41:17.901Z,4.80
2023-03-10T16:43:45.127Z,4.80
2023-03-10T16:46:25.255Z,4.70
2023-03-10T16:48:54.347Z,4.70
2023-03-10T16:51:21.280Z,4.80
2023-03-10T16:53:48.845Z,4.70
2023-03-10T16:56:16.621Z,4.60
2023-03-10T16:58:44.036Z,4.60
2023-03-10T17:01:11.118Z,4.70
2023-03-10T17:03:41.140Z,4.70
2023-03-10T17:06:14.785Z,4.70
2023-03-10T17:08:42.438Z,4.70
2023-03-10T17:11:24.979Z,4.60
2023-03-10T17:13:58.239Z,4.60
2023-03-10T17:16:31.461Z,4.50
2023-03-10T17:19:01.449Z,4.50
2023-03-10T17:21:36.199Z,4.50
2023-03-10T17:24:05.050Z,4.50
2023-03-10T17:26:32.566Z,4.50
2023-03-10T17:29:03.642Z,4.50
2023-03-10T17:31:31.792Z,4.50
2023-03-10T17:34:01.630Z,4.50
2023-03-10T17:36:29.719Z,4.40
2023-03-10T17:39:01.553Z,4.40
2023-03-10T17:41:48.501Z,4.40
2023-03-10T17:44:17.209Z,4.40
2023-03-10T17:46:48.019Z,4.50
2023-03-10T17:49:18.608Z,4.40
2023-03-10T17:51:47.266Z,4.40
2023-03-10T17:54:18.026Z,4.30
2023-03-10T17:56:45.090Z,4.30
2023-03-10T17:59:14.530Z,4.30
2023-03-10T18:01:48.474Z,4.20
2023-03-10T18:04:21.900Z,4.30
2023-03-10T18:06:49.053Z,4.30
2023-03-10T18:09:24.809Z,4.30
2023-03-10T18:11:54.006Z,4.30
2023-03-10T18:14:20.946Z,4.40
2023-03-10T18:16:47.980Z,4.30
2023-03-10T18:19:17.844Z,4.30
2023-03-10T18:21:45.044Z,4.30
2023-03-10T18:24:12.695Z,4.40
2023-03-10T18:26:43.287Z,4.40
2023-03-10T18:29:11.403Z,4.30
2023-03-10T18:31:38.493Z,4.20
2023-03-10T18:34:05.882Z,4.20
2023-03-10T18:36:33.426Z,4.20
2023-03-10T18:39:02.329Z,4.30
2023-03-10T18:41:30.872Z,4.20
2023-03-10T18:43:59.861Z,4.20
2023-03-10T18:46:27.152Z,4.20
2023-03-10T18:48:56.013Z,4.20
2023-03-10T18:51:24.660Z,4.20
2023-03-10T18:53:51.870Z,4.10
2023-03-10T18:56:18.871Z,4.20
2023-03-10T18:58:45.941Z,4.10
2023-03-10T19:01:14.871Z,4.20
2023-03-10T19:03:41.996Z,4.20
2023-03-10T19:06:09.521Z,4.30
2023-03-10T19:08:38.035Z,4.20
2023-03-10T19:11:06.754Z,4.20
2023-03-10T19:13:33.726Z,4.10
2023-03-10T19:16:06.022Z,4.20
2023-03-10T19:18:33.086Z,4.30
2023-03-10T19:21:00.759Z,4.20
2023-03-10T19:23:28.843Z,4.20
2023-03-10T19:25:56.198Z,4.20
2023-03-10T19:28:23.188Z,4.20
2023-03-10T19:30:50.163Z,4.20
2023-03-10T19:33:17.092Z,4.30
2023-03-10T19:35:44.342Z,4.20
2023-03-10T19:38:11.234Z,4.20
2023-03-10T19:40:38.495Z,4.10
2023-03-10T19:43:05.432Z,4.20
2023-03-10T19:45:32.463Z,4.10
2023-03-10T19:47:59.395Z,4.00
2023-03-10T19:50:27.049Z,4.00
2023-03-10T19:52:54.094Z,3.90
2023-03-10T19:55:23.862Z,3.90
2023-03-10T19:57:52.949Z,3.90
2023-03-10T20:00:27.608Z,4.00
2023-03-10T20:02:55.105Z,3.90
2023-03-10T20:05:22.516Z,3.90
2023-03-10T20:07:49.537Z,3.90
2023-03-10T20:10:17.946Z,3.90
2023-03-10T20:12:47.229Z,4.00
2023-03-10T20:15:14.520Z,4.10
2023-03-10T20:17:41.609Z,4.20
2023-03-10T20:20:13.175Z,4.10
2023-03-10T20:22:42.904Z,4.10
2023-03-10T20:25:11.936Z,3.90
2023-03-10T20:27:38.899Z,3.70
2023-03-10T20:30:15.794Z,3.70
2023-03-10T20:32:43.233Z,3.60
2023-03-10T20:35:11.179Z,3.60
2023-03-10T20:37:42.042Z,3.50
2023-03-10T20:40:15.739Z,3.40
2023-03-10T20:42:42.970Z,3.20
2023-03-10T20:45:11.244Z,2.90
2023-03-10T20:47:38.293Z,2.80
2023-03-10T20:50:10.173Z,2.60
2023-03-10T20:52:38.529Z,2.50
2023-03-10T20:55:07.034Z,2.40
2023-03-10T20:57:34.040Z,2.30
2023-03-10T21:00:01.985Z,2.20
2023-03-10T21:02:29.006Z,2.20
2023-03-10T21:04:55.953Z,2.10
2023-03-10T21:07:22.890Z,2.10
2023-03-10T21:09:49.811Z,2.10
2023-03-10T21:12:18.732Z,2.10
2023-03-10T21:14:46.104Z,2.00
2023-03-10T21:17:13.258Z,2.00
2023-03-10T21:19:40.186Z,2.00
2023-03-10T21:22:07.145Z,2.00
2023-03-10T21:24:34.064Z,2.10
2023-03-10T21:27:01.250Z,2.00
2023-03-10T21:29:28.151Z,2.10
2023-03-10T21:31:55.194Z,2.00
2023-03-10T21:34:22.376Z,2.00
2023-03-10T21:36:49.401Z,2.00
2023-03-10T21:39:16.572Z,2.00
2023-03-10T21:41:43.513Z,2.00
2023-03-10T21:44:11.393Z,1.90
2023-03-10T21:46:41.723Z,1.90
2023-03-10T21:49:11.946Z,1.90
2023-03-10T21:51:39.466Z,1.90
2023-03-10T21:54:06.539Z,1.90
2023-03-10T21:56:33.983Z,1.90
2023-03-10T21:59:01.013Z,1.90
2023-03-10T22:01:28.723Z,1.90
2023-03-10T22:03:56.310Z,2.00
2023-03-10T22:06:25.706Z,2.00
2023-03-10T22:08:52.743Z,1.90
2023-03-10T22:11:19.767Z,1.90
2023-03-10T22:13:46.913Z,1.90
2023-03-10T22:16:18.048Z,1.90
2023-03-10T22:18:45.663Z,1.90
2023-03-10T22:21:12.667Z,2.00
2023-03-10T22:23:40.045Z,1.90
2023-03-10T22:26:08.063Z,2.00
2023-03-10T22:28:35.020Z,1.90
2023-03-10T22:31:04.922Z,1.90
2023-03-10T22:33:31.876Z,2.00
2023-03-10T22:36:05.716Z,1.90
2023-03-10T22:38:33.256Z,1.90
2023-03-10T22:41:00.328Z,1.90
2023-03-10T22:43:27.568Z,1.90
2023-03-10T22:45:59.138Z,1.90
2023-03-10T22:48:26.128Z,1.90
2023-03-10T22:50:53.073Z,1.90
2023-03-10T22:53:20.977Z,2.00
2023-03-10T22:55:49.641Z,2.00
2023-03-10T22:58:16.516Z,1.90
2023-03-10T23:00:43.746Z,2.00
2023-03-10T23:03:11.755Z,2.00
2023-03-10T23:05:38.778Z,2.00
2023-03-10T23:08:06.956Z,1.90
2023-03-10T23:10:35.917Z,1.90
2023-03-10T23:13:05.407Z,2.00
2023-03-10T23:15:34.483Z,1.90
2023-03-10T23:18:02.090Z,2.00
2023-03-10T23:20:32.697Z,2.00
2023-03-10T23:23:01.020Z,1.90
2023-03-10T23:25:34.014Z,2.00
2023-03-10T23:28:01.029Z,2.00
2023-03-10T23:30:28.588Z,1.90
2023-03-10T23:32:56.172Z,1.90
2023-03-10T23:35:34.018Z,2.00
2023-03-10T23:38:03.794Z,2.00
2023-03-10T23:40:31.891Z,2.00
2023-03-10T23:43:00.799Z,2.00
2023-03-10T23:45:29.762Z,2.00
2023-03-10T23:47:58.018Z,1.90
2023-03-10T23:50:28.460Z,2.00
2023-03-10T23:52:56.393Z,2.00
2023-03-10T23:55:26.477Z,1.90
2023-03-10T23:57:53.798Z,2.00
